Главная страница
METAR-TAF:

METAR-TAF

Аэропорты :

Краснодар, Россия

Пашковский

широта: 45-02N, долгота: 039-09E, высота над уровнем моря: 33 м

Текущие метеонаблюдения

Эта сводка был подготовлена 20 минут назад, в 11:00 UTC
Ветер 8 Узел от восточный
Температура 23°C
Влажность 50%
Давление 1014 hPa
Видимость 10 км и более
небольшая облачность

METAR: URKK 261100Z 09004MPS 9999 FEW/// 23/12 Q1014 R23C/CLRD60 NOSIG RMK QFE757

Время: 14:20 (11:20 UTC)

Прогноз

Эта сводка был подготовлена 3 часа и 23 минут назад, в 07:57 UTC
Прогноз действительный с 26-го 09 UTC до 27-го 09 UTC
Ветер 6 Узел от восточный с порывами до 16 Узел
Видимость 10 км и более
Отдельные облака на высоте 4000 фута
изменения
С 26-го 21 UTC до 26-го 23 UTC
Видимость: 3100 м
Отдельные облака на высоте 1100 фута
дымка
временами
С 27-го 00 UTC до 27-го 06 UTC
Видимость: 0300 м
Рассеянная облачность на высоте 200 фута
туман

TAF: URKK 260757Z 2609/2709 08003G08MPS 9999 SCT040 BECMG 2621/2623 3100 BR SCT011 TEMPO 2700/2706 0300 FG BKN002

Метеонаблюдения и прогнозы для более 4000 аэропортов (сводки METAR и TAF).

Имеющиеся станции представлены на карте желтыми и красными точками.

Чтобы увидеть название станции, наведите на нее мышь.

Затем щелкните, чтобы увидеть метеонаблюдения и метеопрогнозы.

Управление картой: чтобы увеличить масштаб, щелкните зеленые кнопки с черным крестиком; чтобы уменьшить масштаб, щелкните зеленую кнопку с тире; для просмотра соседних карт щелкайте зеленые стрелки.


METAR-TAF: